Time;durP1;ratioP1;P1;durP2;ratioP2;P2;SDS_P1;SDS_P2;PMS_P1;PMS_P2;Temp;Humidity;BMP_temperature;BMP_pressure;BME280_temperature;BME280_humidity;BME280_pressure;Samples;Min_cycle;Max_cycle;Signal;HPM_P1;HPM_P2
2022/08/01 00:01:55;;;;;;;11.00;5.50;;;18.80;99.90;;;;;;5044727;28;20079;-62
2022/08/01 00:04:20;;;;;;;7.20;5.10;;;18.80;99.90;;;;;;5013303;28;20125;-65
2022/08/01 00:06:46;;;;;;;9.55;4.80;;;18.70;99.90;;;;;;5031487;28;20041;-63
2022/08/01 00:09:12;;;;;;;6.45;4.93;;;18.70;99.90;;;;;;5031284;28;20046;-65
2022/08/01 00:11:37;;;;;;;5.82;4.75;;;18.70;99.90;;;;;;5040070;28;20095;-63
2022/08/01 00:14:03;;;;;;;8.00;5.00;;;18.70;99.90;;;;;;5045609;28;20370;-63
2022/08/01 00:16:29;;;;;;;7.68;4.95;;;18.70;99.90;;;;;;5043310;28;20053;-64
2022/08/01 00:18:55;;;;;;;8.43;5.38;;;18.70;99.90;;;;;;5031006;28;20056;-63
2022/08/01 00:21:21;;;;;;;10.63;5.35;;;18.70;99.90;;;;;;5050542;28;20062;-63
2022/08/01 00:23:47;;;;;;;6.95;5.15;;;18.70;99.90;;;;;;5042550;28;20049;-64
2022/08/01 00:26:13;;;;;;;7.43;4.65;;;18.70;99.90;;;;;;5044506;28;20041;-64
2022/08/01 00:28:39;;;;;;;7.88;4.68;;;18.70;99.90;;;;;;5031429;28;20144;-63
2022/08/01 00:31:04;;;;;;;6.40;5.10;;;18.70;99.90;;;;;;5030735;28;20048;-63
2022/08/01 00:33:30;;;;;;;10.30;4.78;;;18.70;99.90;;;;;;5045974;28;20041;-63
2022/08/01 00:35:56;;;;;;;10.60;5.88;;;18.70;99.90;;;;;;5043740;28;20064;-63
2022/08/01 00:38:21;;;;;;;7.68;4.82;;;18.70;99.90;;;;;;5035220;28;20069;-62
2022/08/01 00:40:47;;;;;;;6.65;5.03;;;18.70;99.90;;;;;;5042159;28;20093;-63
2022/08/01 00:43:14;;;;;;;7.95;4.85;;;18.70;99.90;;;;;;5040603;28;20420;-63
2022/08/01 00:45:41;;;;;;;6.78;4.70;;;18.70;99.90;;;;;;5039561;28;20477;-63
2022/08/01 00:48:07;;;;;;;7.82;4.97;;;18.70;99.90;;;;;;5036621;28;20381;-64
2022/08/01 00:50:32;;;;;;;5.90;4.28;;;18.70;99.90;;;;;;5040082;28;20044;-63
2022/08/01 00:52:59;;;;;;;5.88;4.00;;;18.80;99.90;;;;;;5053523;28;20037;-63
2022/08/01 00:55:26;;;;;;;7.13;3.95;;;18.70;99.90;;;;;;5038145;28;20480;-63
2022/08/01 00:57:51;;;;;;;5.35;4.30;;;18.70;99.90;;;;;;5054261;28;20052;-63
2022/08/01 01:00:17;;;;;;;6.65;4.22;;;18.70;99.90;;;;;;5040342;28;20367;-64
2022/08/01 01:02:43;;;;;;;4.90;3.83;;;18.70;99.90;;;;;;5033679;28;20043;-63
2022/08/01 01:05:09;;;;;;;6.75;3.97;;;18.70;99.90;;;;;;5044842;28;20037;-63
2022/08/01 01:08:04;;;;;;;5.50;3.97;;;18.70;99.90;;;;;;5053930;28;20025;-63
2022/08/01 01:10:39;;;;;;;5.95;3.50;;;18.70;99.90;;;;;;5054004;28;20041;-63
2022/08/01 01:13:10;;;;;;;6.13;3.72;;;18.70;99.90;;;;;;5040746;28;20037;-63
2022/08/01 01:15:41;;;;;;;8.38;3.88;;;18.70;99.90;;;;;;5030941;28;20052;-63
2022/08/01 01:18:11;;;;;;;6.70;3.85;;;18.60;99.90;;;;;;5053733;28;20075;-64
2022/08/01 01:20:41;;;;;;;7.97;4.25;;;18.60;99.90;;;;;;5040631;28;20049;-63
2022/08/01 01:23:40;;;;;;;8.52;4.28;;;18.60;99.90;;;;;;5053205;28;20343;-63
2022/08/01 01:26:28;;;;;;;6.68;4.13;;;18.60;99.90;;;;;;5038563;28;20040;-63
2022/08/01 01:29:31;;;;;;;7.18;4.13;;;18.60;99.90;;;;;;5021153;28;20045;-64
2022/08/01 01:32:14;;;;;;;7.95;4.05;;;18.60;99.90;;;;;;5019882;28;20053;-62
2022/08/01 01:34:44;;;;;;;5.37;4.10;;;18.60;99.90;;;;;;5039637;28;20368;-63
2022/08/01 01:37:14;;;;;;;5.65;3.60;;;18.60;99.90;;;;;;5038839;28;20273;-64
2022/08/01 01:39:42;;;;;;;6.32;3.53;;;18.60;99.90;;;;;;5035622;28;20493;-64
2022/08/01 01:42:08;;;;;;;6.75;3.58;;;18.60;99.90;;;;;;5034545;28;20029;-63
2022/08/01 01:44:36;;;;;;;4.65;3.75;;;18.60;99.90;;;;;;5014993;28;20042;-63
2022/08/01 01:47:03;;;;;;;6.72;3.63;;;18.60;99.90;;;;;;5050775;28;20198;-64
2022/08/01 01:49:29;;;;;;;5.95;4.32;;;18.50;99.90;;;;;;5044839;28;20039;-63
2022/08/01 01:51:58;;;;;;;6.88;3.90;;;18.50;99.90;;;;;;5032726;28;20401;-62
2022/08/01 01:54:33;;;;;;;5.28;3.85;;;18.50;99.90;;;;;;5026283;28;20033;-63
2022/08/01 01:57:01;;;;;;;7.45;4.03;;;18.50;99.90;;;;;;5010618;28;20056;-63
2022/08/01 01:59:30;;;;;;;4.63;3.38;;;18.50;99.90;;;;;;5033098;28;20029;-63
2022/08/01 02:01:59;;;;;;;6.88;4.20;;;18.50;99.90;;;;;;5032869;28;20051;-62
2022/08/01 02:04:27;;;;;;;5.00;3.75;;;18.50;99.90;;;;;;5044298;28;20049;-63
2022/08/01 02:06:53;;;;;;;5.85;3.90;;;18.50;99.90;;;;;;5015347;28;20049;-62
2022/08/01 02:09:21;;;;;;;7.30;3.90;;;18.50;99.90;;;;;;5033063;28;20430;-62
2022/08/01 02:11:48;;;;;;;5.82;4.10;;;18.50;99.90;;;;;;5032651;28;20136;-63
2022/08/01 02:14:15;;;;;;;6.43;4.13;;;18.40;99.90;;;;;;5032500;28;20034;-63
2022/08/01 02:16:44;;;;;;;6.38;3.53;;;18.50;99.90;;;;;;5032923;28;20057;-62
2022/08/01 02:19:11;;;;;;;3.67;2.90;;;18.40;99.90;;;;;;5033188;28;20053;-62
2022/08/01 02:21:49;;;;;;;6.38;2.88;;;18.40;99.90;;;;;;5040189;28;20446;-63
2022/08/01 02:24:46;;;;;;;4.82;2.42;;;18.40;99.90;;;;;;5045781;28;20112;-63
2022/08/01 02:27:17;;;;;;;2.80;2.08;;;18.40;99.90;;;;;;4973933;28;20532;-64
2022/08/01 02:29:49;;;;;;;3.72;2.33;;;18.30;99.90;;;;;;5038885;28;20060;-63
2022/08/01 02:32:23;;;;;;;3.50;2.40;;;18.30;99.90;;;;;;5015867;28;20411;-63
2022/08/01 02:34:52;;;;;;;2.92;2.55;;;18.30;99.90;;;;;;5014405;28;20041;-62
2022/08/01 02:37:20;;;;;;;3.30;2.58;;;18.30;99.90;;;;;;5032993;28;20041;-62
2022/08/01 02:39:50;;;;;;;5.93;2.70;;;18.20;99.90;;;;;;5033114;28;20045;-62
2022/08/01 02:42:18;;;;;;;4.95;2.92;;;18.30;99.90;;;;;;5032275;28;20384;-63
2022/08/01 02:44:47;;;;;;;5.97;3.10;;;18.30;99.90;;;;;;5024335;28;20042;-62
2022/08/01 02:47:12;;;;;;;4.93;2.83;;;18.30;99.90;;;;;;5031584;28;20045;-62
2022/08/01 02:49:47;;;;;;;4.93;3.00;;;18.30;99.90;;;;;;5032339;28;20041;-62
2022/08/01 02:52:15;;;;;;;5.25;3.00;;;18.30;99.90;;;;;;5031552;28;20502;-63
2022/08/01 02:54:44;;;;;;;6.05;3.28;;;18.40;99.90;;;;;;5031263;28;20049;-62
2022/08/01 02:57:10;;;;;;;5.30;2.88;;;18.40;99.90;;;;;;5033864;28;20083;-62
2022/08/01 02:59:38;;;;;;;4.78;3.00;;;18.40;99.90;;;;;;5052788;28;20058;-62
2022/08/01 03:02:05;;;;;;;4.15;3.50;;;18.40;99.90;;;;;;5037394;28;20044;-62
2022/08/01 03:04:34;;;;;;;4.28;3.10;;;18.40;99.90;;;;;;5031597;28;20120;-62
2022/08/01 03:07:03;;;;;;;4.88;3.67;;;18.40;99.90;;;;;;5032526;28;20049;-62
2022/08/01 03:09:30;;;;;;;6.45;3.33;;;18.40;99.90;;;;;;5037885;28;20051;-62
2022/08/01 03:12:00;;;;;;;5.68;3.38;;;18.30;99.90;;;;;;5034567;28;20106;-62
2022/08/01 03:14:27;;;;;;;6.55;3.55;;;18.40;99.90;;;;;;5015622;28;20131;-62
2022/08/01 03:16:54;;;;;;;5.50;3.33;;;18.40;99.90;;;;;;5042276;28;20077;-62
2022/08/01 03:19:23;;;;;;;6.13;3.72;;;18.40;99.90;;;;;;5035275;28;21495;-63
2022/08/01 03:21:51;;;;;;;5.97;3.97;;;18.30;99.90;;;;;;5031571;28;20121;-63
2022/08/01 03:24:19;;;;;;;7.70;4.20;;;18.30;99.90;;;;;;5036556;28;20037;-63
2022/08/01 03:26:45;;;;;;;5.35;3.65;;;18.30;99.90;;;;;;5031796;28;20041;-62
2022/08/01 03:29:25;;;;;;;7.72;4.07;;;18.30;99.90;;;;;;5032443;28;20052;-62
2022/08/01 03:31:51;;;;;;;6.38;4.25;;;18.30;99.90;;;;;;5031845;28;20033;-64
2022/08/01 03:34:17;;;;;;;6.35;3.70;;;18.30;99.90;;;;;;5031157;28;20056;-62
2022/08/01 03:37:03;;;;;;;6.75;3.60;;;18.20;99.90;;;;;;5046157;28;20102;-63
2022/08/01 03:39:33;;;;;;;7.22;3.40;;;18.20;99.90;;;;;;5031255;28;20053;-62
2022/08/01 03:42:05;;;;;;;4.65;3.40;;;18.10;99.90;;;;;;5031312;28;20473;-63
2022/08/01 03:44:34;;;;;;;4.68;2.67;;;18.20;99.90;;;;;;5033387;28;20099;-62
2022/08/01 03:47:05;;;;;;;6.72;2.80;;;18.10;99.90;;;;;;5014328;28;20042;-62
2022/08/01 03:49:33;;;;;;;4.00;2.42;;;18.10;99.90;;;;;;5031711;28;20094;-62
2022/08/01 03:52:02;;;;;;;5.68;2.45;;;18.10;99.90;;;;;;5031071;28;20453;-62
2022/08/01 03:54:32;;;;;;;5.03;2.55;;;18.10;99.90;;;;;;5030665;28;20144;-63
2022/08/01 03:56:59;;;;;;;5.80;2.47;;;18.10;99.90;;;;;;5032182;28;20056;-63
2022/08/01 03:59:26;;;;;;;3.58;2.08;;;18.00;99.90;;;;;;5044979;28;20034;-62
2022/08/01 04:01:52;;;;;;;4.00;2.20;;;18.10;99.90;;;;;;5044059;28;20075;-62
2022/08/01 04:04:18;;;;;;;5.35;2.13;;;18.00;99.90;;;;;;5031942;28;20041;-63
2022/08/01 04:06:44;;;;;;;3.20;1.70;;;18.10;99.90;;;;;;5031318;28;20167;-62
2022/08/01 04:09:11;;;;;;;5.60;2.30;;;18.10;99.90;;;;;;5033998;28;20037;-62
2022/08/01 04:11:37;;;;;;;5.55;2.17;;;18.00;99.90;;;;;;5035376;28;20041;-63
2022/08/01 04:14:03;;;;;;;5.50;2.20;;;18.00;99.90;;;;;;5033707;28;20034;-63
2022/08/01 04:16:29;;;;;;;5.68;2.38;;;18.10;99.90;;;;;;5034655;28;20053;-64
2022/08/01 04:18:55;;;;;;;4.60;2.20;;;18.10;99.90;;;;;;5035092;28;20037;-62
2022/08/01 04:21:27;;;;;;;4.03;2.00;;;18.10;99.90;;;;;;5039766;28;20052;-62
2022/08/01 04:23:57;;;;;;;6.57;2.38;;;18.10;99.90;;;;;;5039598;28;20496;-62
2022/08/01 04:26:25;;;;;;;6.28;2.15;;;18.10;99.90;;;;;;5034693;28;20045;-62
2022/08/01 04:28:54;;;;;;;5.82;2.65;;;18.10;99.90;;;;;;5034649;28;20282;-63
2022/08/01 04:31:22;;;;;;;9.25;2.40;;;18.00;99.90;;;;;;5033905;28;20121;-62
2022/08/01 04:33:50;;;;;;;4.72;1.95;;;18.00;99.90;;;;;;5033797;28;20053;-63
2022/08/01 04:36:19;;;;;;;4.55;2.25;;;18.00;99.90;;;;;;5034321;28;20087;-63
2022/08/01 04:38:48;;;;;;;4.30;2.45;;;18.00;99.90;;;;;;5033842;28;20485;-63
2022/08/01 04:41:15;;;;;;;5.22;2.65;;;18.00;99.90;;;;;;5033938;28;20087;-62
2022/08/01 04:43:41;;;;;;;6.78;3.08;;;18.10;99.90;;;;;;5033873;28;20127;-62
2022/08/01 04:46:08;;;;;;;5.28;2.17;;;18.10;99.90;;;;;;5033314;28;20278;-63
2022/08/01 04:48:37;;;;;;;6.50;2.80;;;18.00;99.90;;;;;;5034210;28;20493;-63
2022/08/01 04:51:03;;;;;;;4.80;2.38;;;18.00;99.90;;;;;;5034126;28;20079;-62
2022/08/01 04:53:32;;;;;;;8.18;2.33;;;18.00;99.90;;;;;;5034384;28;20049;-63
2022/08/01 04:55:57;;;;;;;8.75;3.10;;;18.00;99.90;;;;;;5032985;28;20041;-61
2022/08/01 04:58:23;;;;;;;6.57;2.50;;;18.00;99.90;;;;;;5034008;28;20469;-61
2022/08/01 05:00:49;;;;;;;7.80;2.58;;;18.00;99.90;;;;;;5033253;28;20030;-61
2022/08/01 05:03:15;;;;;;;6.25;2.60;;;18.00;99.90;;;;;;5033919;28;20037;-61
2022/08/01 05:05:40;;;;;;;7.30;2.83;;;18.00;99.90;;;;;;5032749;28;20049;-60
2022/08/01 05:08:06;;;;;;;5.05;2.80;;;18.10;99.90;;;;;;5033411;28;20041;-61
2022/08/01 05:10:32;;;;;;;5.93;2.60;;;18.10;99.90;;;;;;5033882;28;20041;-61
2022/08/01 05:12:58;;;;;;;9.50;2.78;;;18.10;99.90;;;;;;5033577;28;20033;-63
2022/08/01 05:15:23;;;;;;;5.05;2.55;;;18.10;99.90;;;;;;5032368;28;20046;-61
2022/08/01 05:17:49;;;;;;;12.93;3.15;;;18.10;99.90;;;;;;5031610;28;20029;-63
2022/08/01 05:20:15;;;;;;;9.35;3.05;;;18.10;99.90;;;;;;5013898;28;20211;-62
2022/08/01 05:22:40;;;;;;;6.40;2.60;;;18.00;99.90;;;;;;5029491;28;20041;-61
2022/08/01 05:25:06;;;;;;;10.77;3.25;;;18.00;99.90;;;;;;5033686;28;20132;-61
2022/08/01 05:27:37;;;;;;;11.23;3.30;;;18.00;99.90;;;;;;5034586;28;20516;-61
2022/08/01 05:30:03;;;;;;;10.70;3.22;;;18.00;99.90;;;;;;5016987;28;20447;-61
2022/08/01 05:32:30;;;;;;;8.93;3.22;;;18.00;99.90;;;;;;5033725;28;20051;-61
2022/08/01 05:34:55;;;;;;;10.10;3.33;;;18.00;99.90;;;;;;5030256;28;20429;-61
2022/08/01 05:37:21;;;;;;;12.98;4.18;;;18.00;99.90;;;;;;5027236;28;20262;-62
2022/08/01 05:39:46;;;;;;;14.82;4.07;;;18.00;99.90;;;;;;5030734;28;20029;-61
2022/08/01 05:42:12;;;;;;;12.55;3.38;;;18.10;99.90;;;;;;5033375;28;20041;-62
2022/08/01 05:44:37;;;;;;;15.35;3.63;;;18.10;99.90;;;;;;5032768;28;20472;-61
2022/08/01 05:47:03;;;;;;;10.88;3.50;;;18.20;99.90;;;;;;5033930;28;20033;-60
2022/08/01 05:49:29;;;;;;;14.10;4.05;;;18.20;99.90;;;;;;5033980;28;20033;-61
2022/08/01 05:51:54;;;;;;;14.23;3.22;;;18.20;99.90;;;;;;5033986;28;20045;-61
2022/08/01 05:54:20;;;;;;;10.30;3.25;;;18.30;99.90;;;;;;5032245;28;20029;-61
2022/08/01 05:56:46;;;;;;;13.00;2.97;;;18.20;99.90;;;;;;5015170;28;20120;-61
2022/08/01 05:59:11;;;;;;;12.18;3.30;;;18.30;99.90;;;;;;5033729;28;20041;-63
2022/08/01 06:01:38;;;;;;;10.70;3.20;;;18.20;99.90;;;;;;5021704;28;20042;-62
2022/08/01 06:04:04;;;;;;;20.50;4.03;;;18.20;99.90;;;;;;5013865;28;20056;-61
2022/08/01 06:06:29;;;;;;;11.77;3.15;;;18.30;99.90;;;;;;5013778;28;20457;-61
2022/08/01 06:08:55;;;;;;;15.13;3.53;;;18.30;99.90;;;;;;5014655;28;20104;-61
2022/08/01 06:11:21;;;;;;;10.70;2.95;;;18.30;99.90;;;;;;5014407;28;20113;-62
2022/08/01 06:13:46;;;;;;;11.05;2.60;;;18.30;99.90;;;;;;5012862;28;20337;-65
2022/08/01 06:16:12;;;;;;;12.15;3.33;;;18.30;99.90;;;;;;5019322;28;20041;-61
2022/08/01 06:18:38;;;;;;;8.93;3.15;;;18.20;99.90;;;;;;5011413;28;20037;-63
2022/08/01 06:21:03;;;;;;;14.32;3.00;;;18.30;99.90;;;;;;5017430;28;20064;-62
2022/08/01 06:23:29;;;;;;;14.27;3.33;;;18.30;99.90;;;;;;5018670;28;20167;-64
2022/08/01 06:25:54;;;;;;;11.43;3.28;;;18.30;99.90;;;;;;5014190;28;20052;-62
2022/08/01 06:28:21;;;;;;;13.30;3.30;;;18.30;99.90;;;;;;5019070;28;20054;-63
2022/08/01 06:30:47;;;;;;;18.38;3.50;;;18.30;99.90;;;;;;5019780;28;20434;-63
2022/08/01 06:33:13;;;;;;;15.25;3.33;;;18.30;99.90;;;;;;5014109;28;20085;-62
2022/08/01 06:35:40;;;;;;;11.85;3.03;;;18.30;99.90;;;;;;5014200;28;20045;-62
2022/08/01 06:38:05;;;;;;;15.95;3.50;;;18.30;99.90;;;;;;5012203;28;20046;-61
2022/08/01 06:40:31;;;;;;;16.13;3.25;;;18.30;99.90;;;;;;5030693;28;20041;-62
2022/08/01 06:42:57;;;;;;;13.65;3.15;;;18.40;99.90;;;;;;5032423;28;20344;-61
2022/08/01 06:45:24;;;;;;;14.25;3.35;;;18.40;99.90;;;;;;5032765;28;20033;-64
2022/08/01 06:47:50;;;;;;;12.82;3.90;;;18.40;99.90;;;;;;5031527;28;20125;-62
2022/08/01 06:50:15;;;;;;;10.63;3.13;;;18.50;99.90;;;;;;5032917;28;20503;-62
2022/08/01 06:52:41;;;;;;;12.30;3.17;;;18.40;99.90;;;;;;5032535;28;20563;-62
2022/08/01 06:55:08;;;;;;;13.60;2.95;;;18.30;99.90;;;;;;5032207;28;20038;-62
2022/08/01 06:57:34;;;;;;;12.52;2.95;;;18.40;99.90;;;;;;5032107;28;20069;-62
2022/08/01 07:00:11;;;;;;;9.85;3.13;;;18.50;99.90;;;;;;5011701;28;20033;-62
2022/08/01 07:02:37;;;;;;;14.52;3.15;;;18.50;99.90;;;;;;5025705;28;20126;-61
2022/08/01 07:05:03;;;;;;;14.90;4.15;;;18.60;99.90;;;;;;5031617;28;20072;-62
2022/08/01 07:07:30;;;;;;;12.05;2.78;;;18.60;99.90;;;;;;5026471;28;20037;-62
2022/08/01 07:09:56;;;;;;;11.63;2.80;;;18.70;99.90;;;;;;5033042;28;20150;-62
2022/08/01 07:12:21;;;;;;;14.20;3.03;;;18.80;99.90;;;;;;5032597;28;20080;-62
2022/08/01 07:14:47;;;;;;;13.48;3.35;;;18.80;99.90;;;;;;5031681;28;20052;-62
2022/08/01 07:17:13;;;;;;;18.88;3.10;;;19.00;99.90;;;;;;5009243;28;20454;-61
2022/08/01 07:19:39;;;;;;;12.10;3.13;;;19.20;99.90;;;;;;5024690;28;20119;-60
2022/08/01 07:22:04;;;;;;;13.00;3.25;;;19.40;99.90;;;;;;5032040;28;20044;-58
2022/08/01 07:24:31;;;;;;;11.52;2.70;;;19.40;99.90;;;;;;5027645;28;20072;-62
2022/08/01 07:27:00;;;;;;;15.15;2.92;;;19.70;99.90;;;;;;5031022;28;20068;-62
2022/08/01 07:29:26;;;;;;;14.55;3.30;;;19.70;99.90;;;;;;5031222;28;20033;-61
2022/08/01 07:31:53;;;;;;;10.88;2.65;;;19.80;99.90;;;;;;5024050;28;20088;-62
2022/08/01 07:34:19;;;;;;;11.82;3.42;;;20.00;99.90;;;;;;5025488;28;20117;-63
2022/08/01 07:36:45;;;;;;;12.55;2.97;;;20.20;99.90;;;;;;5031373;28;20120;-61
2022/08/01 07:39:11;;;;;;;12.95;3.30;;;20.20;99.90;;;;;;5032743;28;20037;-62
2022/08/01 07:41:36;;;;;;;10.02;2.97;;;20.30;99.90;;;;;;5029805;28;20037;-62
2022/08/01 07:44:02;;;;;;;13.80;3.10;;;20.50;99.90;;;;;;5026068;28;20052;-62
2022/08/01 07:46:30;;;;;;;12.32;2.70;;;20.70;99.90;;;;;;5036572;28;20065;-61
2022/08/01 07:48:56;;;;;;;17.92;3.47;;;20.90;99.90;;;;;;5036657;28;20041;-62
2022/08/01 07:51:21;;;;;;;12.48;2.92;;;21.20;99.90;;;;;;5036604;28;20037;-62
2022/08/01 07:53:47;;;;;;;10.18;2.60;;;21.40;99.90;;;;;;5035085;28;20034;-62
2022/08/01 07:56:13;;;;;;;14.68;3.25;;;21.60;99.90;;;;;;5035045;28;20045;-62
2022/08/01 07:58:38;;;;;;;13.02;2.80;;;21.60;99.90;;;;;;5036051;28;20041;-63
2022/08/01 08:01:04;;;;;;;13.60;2.83;;;21.60;99.90;;;;;;5036393;28;20033;-63
2022/08/01 08:03:30;;;;;;;11.43;2.95;;;21.40;99.90;;;;;;5036295;28;20041;-63
2022/08/01 08:05:56;;;;;;;13.23;3.38;;;21.40;99.90;;;;;;5035457;28;20041;-62
2022/08/01 08:08:21;;;;;;;19.90;3.55;;;21.10;99.90;;;;;;5035779;28;20037;-63
2022/08/01 08:10:47;;;;;;;14.98;3.40;;;20.90;99.90;;;;;;5032616;28;20053;-62
2022/08/01 08:13:13;;;;;;;12.73;2.42;;;21.00;99.90;;;;;;5035764;28;20045;-63
2022/08/01 08:15:38;;;;;;;12.80;3.30;;;21.10;99.90;;;;;;5034972;28;20050;-62
2022/08/01 08:18:05;;;;;;;12.75;2.95;;;21.20;99.90;;;;;;5035651;28;20049;-63
2022/08/01 08:20:30;;;;;;;12.75;2.90;;;21.10;99.90;;;;;;5017390;28;20041;-63
2022/08/01 08:22:58;;;;;;;13.30;2.97;;;21.00;99.90;;;;;;5035085;28;20037;-63
2022/08/01 08:25:25;;;;;;;12.98;2.92;;;21.00;99.90;;;;;;5043106;28;20153;-62
2022/08/01 08:27:51;;;;;;;16.45;2.97;;;20.90;99.90;;;;;;5042459;28;20381;-63
2022/08/01 08:30:17;;;;;;;10.25;3.17;;;20.80;99.90;;;;;;5049848;28;20029;-63
2022/08/01 08:32:43;;;;;;;12.15;2.63;;;20.90;99.90;;;;;;5017719;28;20080;-63
2022/08/01 08:35:09;;;;;;;15.35;2.70;;;21.00;99.90;;;;;;5036952;28;20056;-63
2022/08/01 08:37:36;;;;;;;20.25;3.22;;;21.20;99.90;;;;;;5054705;28;20033;-63
2022/08/01 08:40:04;;;;;;;15.45;3.00;;;21.40;99.90;;;;;;5040277;28;20163;-64
2022/08/01 08:42:30;;;;;;;13.02;2.90;;;21.50;99.90;;;;;;5035355;28;20033;-63
2022/08/01 08:44:55;;;;;;;12.82;2.47;;;21.70;99.90;;;;;;5026933;28;20038;-64
2022/08/01 08:47:23;;;;;;;10.05;2.75;;;21.70;99.90;;;;;;5032549;28;20131;-64
2022/08/01 08:49:53;;;;;;;10.30;2.70;;;21.50;99.90;;;;;;5035121;28;20045;-63
2022/08/01 08:52:20;;;;;;;11.25;2.72;;;21.30;99.90;;;;;;5046025;28;20040;-63
2022/08/01 08:54:46;;;;;;;12.55;2.80;;;21.30;99.90;;;;;;5027165;28;20042;-63
2022/08/01 08:57:14;;;;;;;13.75;2.80;;;21.10;99.90;;;;;;5033128;28;20529;-62
2022/08/01 08:59:42;;;;;;;9.88;2.67;;;21.20;99.90;;;;;;5034654;28;20092;-65
2022/08/01 09:02:09;;;;;;;12.68;2.72;;;21.30;99.90;;;;;;5034656;28;20045;-63
2022/08/01 09:04:37;;;;;;;13.50;3.13;;;21.40;99.90;;;;;;5034823;28;20441;-63
2022/08/01 09:07:05;;;;;;;9.23;2.58;;;21.40;99.90;;;;;;5033921;28;20594;-64
2022/08/01 09:09:31;;;;;;;8.73;2.45;;;21.60;99.90;;;;;;5034978;28;20116;-63
2022/08/01 09:11:57;;;;;;;10.43;2.58;;;21.80;99.90;;;;;;5016750;28;20044;-63
2022/08/01 09:14:25;;;;;;;8.35;2.53;;;21.80;99.90;;;;;;5031166;28;20046;-63
2022/08/01 09:17:10;;;;;;;7.63;1.90;;;22.00;99.90;;;;;;5027100;28;20053;-64
2022/08/01 09:19:44;;;;;;;9.88;2.40;;;22.20;99.90;;;;;;5033262;28;20049;-64
2022/08/01 09:22:11;;;;;;;;;;;22.20;99.90;;;;;;5016686;28;20614;-63
2022/08/01 09:24:39;;;;;;;11.80;2.55;;;22.30;99.90;;;;;;5039829;28;19921;-63
2022/08/01 09:27:23;;;;;;;11.55;2.47;;;22.40;99.90;;;;;;5026854;28;20045;-63
2022/08/01 09:29:49;;;;;;;;;;;22.30;99.90;;;;;;5054091;28;20116;-63
2022/08/01 09:32:15;;;;;;;10.45;2.50;;;22.30;99.90;;;;;;5040980;28;19932;-63
2022/08/01 09:34:41;;;;;;;12.32;2.65;;;22.30;99.90;;;;;;5046774;28;20049;-64
2022/08/01 09:37:06;;;;;;;9.48;2.35;;;22.40;99.90;;;;;;5048043;28;20030;-63
2022/08/01 09:39:39;;;;;;;11.10;2.78;;;22.40;99.90;;;;;;5034461;28;20033;-63
2022/08/01 09:42:25;;;;;;;12.80;2.40;;;22.30;99.90;;;;;;5035586;28;20033;-65
2022/08/01 09:44:52;;;;;;;9.48;2.30;;;22.30;99.90;;;;;;5040436;28;20409;-63
2022/08/01 09:47:20;;;;;;;11.10;2.55;;;22.40;99.90;;;;;;5047650;28;20403;-64
2022/08/01 09:49:57;;;;;;;8.55;2.30;;;22.60;99.90;;;;;;5016902;28;20420;-65
2022/08/01 09:52:25;;;;;;;8.55;2.30;;;22.70;99.90;;;;;;5033258;28;20049;-64
2022/08/01 09:54:54;;;;;;;10.00;2.22;;;22.80;99.90;;;;;;5044539;28;20045;-63
2022/08/01 09:57:19;;;;;;;7.50;2.30;;;22.70;99.90;;;;;;5036656;28;20033;-64
2022/08/01 09:59:49;;;;;;;9.80;2.35;;;22.70;99.90;;;;;;5044314;28;20037;-64
2022/08/01 10:02:29;;;;;;;7.57;2.33;;;22.80;99.90;;;;;;5033594;28;20527;-63
2022/08/01 10:04:55;;;;;;;8.77;2.58;;;22.90;99.90;;;;;;5009983;28;20069;-64
2022/08/01 10:07:22;;;;;;;8.02;2.10;;;23.00;99.90;;;;;;5026741;28;20497;-63
2022/08/01 10:09:47;;;;;;;11.30;2.42;;;23.10;99.90;;;;;;5012405;28;20060;-63
2022/08/01 10:12:16;;;;;;;9.15;2.83;;;23.10;99.90;;;;;;5039421;28;20053;-64
2022/08/01 10:14:44;;;;;;;6.40;2.20;;;23.00;99.90;;;;;;5018701;28;20434;-63
2022/08/01 10:17:16;;;;;;;6.03;1.90;;;23.10;99.90;;;;;;5045042;28;20053;-63
2022/08/01 10:19:43;;;;;;;5.95;1.80;;;23.00;99.90;;;;;;5052994;28;20096;-63
2022/08/01 10:22:11;;;;;;;13.35;2.65;;;23.10;99.90;;;;;;5041644;28;20048;-63
2022/08/01 10:24:41;;;;;;;8.07;2.33;;;22.90;99.90;;;;;;5015019;28;20053;-64
2022/08/01 10:27:09;;;;;;;9.10;2.20;;;22.90;99.90;;;;;;5008599;28;20040;-63
2022/08/01 10:29:50;;;;;;;6.05;1.90;;;22.70;99.90;;;;;;5053352;28;20041;-63
2022/08/01 10:32:17;;;;;;;7.60;2.10;;;22.80;99.90;;;;;;5053409;28;20033;-64
2022/08/01 10:34:44;;;;;;;10.68;2.33;;;22.90;99.90;;;;;;5041341;28;20041;-64
2022/08/01 10:37:10;;;;;;;6.90;3.00;;;22.90;99.90;;;;;;5051252;28;20395;-63
2022/08/01 10:39:37;;;;;;;5.68;1.73;;;23.00;99.90;;;;;;5035428;28;20040;-63
2022/08/01 10:42:03;;;;;;;5.57;1.85;;;23.20;99.90;;;;;;5039002;28;20044;-63
2022/08/01 10:44:31;;;;;;;7.38;1.83;;;23.30;99.90;;;;;;5039601;28;20037;-63
2022/08/01 10:47:10;;;;;;;5.25;1.60;;;23.20;99.90;;;;;;5044219;28;20051;-63
2022/08/01 10:49:47;;;;;;;7.88;1.80;;;23.50;99.90;;;;;;5052807;28;20051;-65
2022/08/01 10:52:17;;;;;;;6.95;1.50;;;23.60;99.90;;;;;;5051534;28;20040;-63
2022/08/01 10:54:43;;;;;;;6.32;1.83;;;23.60;99.90;;;;;;5042133;28;20044;-64
2022/08/01 10:57:10;;;;;;;7.25;1.77;;;23.60;99.90;;;;;;5030718;28;20037;-64
2022/08/01 10:59:46;;;;;;;6.97;1.50;;;23.70;99.90;;;;;;5052946;28;20037;-63
2022/08/01 11:02:28;;;;;;;6.95;1.70;;;23.60;99.90;;;;;;5038669;28;20048;-63
2022/08/01 11:05:10;;;;;;;5.93;1.90;;;23.30;99.90;;;;;;5044514;28;20053;-63
2022/08/01 11:07:46;;;;;;;5.90;1.70;;;23.10;99.90;;;;;;5042342;28;20053;-63
2022/08/01 11:10:49;;;;;;;7.95;1.80;;;23.10;99.90;;;;;;5035355;28;20077;-64
2022/08/01 11:13:53;;;;;;;5.30;1.83;;;23.20;99.90;;;;;;4999555;28;20176;-64
2022/08/01 11:16:31;;;;;;;9.00;2.95;;;23.40;99.90;;;;;;5013189;28;20050;-63
2022/08/01 11:18:57;;;;;;;5.53;1.60;;;23.40;99.90;;;;;;5046025;28;20040;-63
2022/08/01 11:21:52;;;;;;;6.50;1.63;;;23.60;99.90;;;;;;5015509;28;20481;-64
2022/08/01 11:24:45;;;;;;;7.10;1.90;;;23.50;99.90;;;;;;5044547;28;20056;-65
2022/08/01 11:27:17;;;;;;;5.25;2.20;;;23.50;99.90;;;;;;5019573;28;20091;-62
2022/08/01 11:29:43;;;;;;;8.40;2.05;;;23.40;99.90;;;;;;5032818;28;20594;-63
2022/08/01 11:32:26;;;;;;;7.55;1.98;;;23.30;99.90;;;;;;5032639;28;20038;-64
2022/08/01 11:34:55;;;;;;;6.20;2.00;;;23.50;99.90;;;;;;5014549;28;20129;-63
2022/08/01 11:37:28;;;;;;;6.40;1.95;;;23.50;99.90;;;;;;5020174;28;20045;-63
2022/08/01 11:40:15;;;;;;;10.85;1.80;;;23.60;99.90;;;;;;5032947;28;20049;-63
2022/08/01 11:42:41;;;;;;;5.13;1.73;;;23.80;99.90;;;;;;5020782;28;20486;-63
2022/08/01 11:45:09;;;;;;;4.80;1.70;;;24.00;99.90;;;;;;4999211;28;20103;-63
2022/08/01 11:47:51;;;;;;;5.25;1.92;;;23.90;99.90;;;;;;5030157;28;20042;-64
2022/08/01 11:50:29;;;;;;;5.57;1.63;;;24.00;99.90;;;;;;5027833;28;20037;-65
2022/08/01 11:53:02;;;;;;;7.00;1.70;;;24.10;99.80;;;;;;5026915;28;20461;-61
2022/08/01 11:55:29;;;;;;;8.35;2.17;;;23.90;99.30;;;;;;5032781;28;20033;-63
2022/08/01 11:58:03;;;;;;;4.60;1.40;;;23.70;99.60;;;;;;5014671;28;20060;-63
2022/08/01 12:00:30;;;;;;;4.50;1.70;;;23.80;99.10;;;;;;5033357;28;20040;-63
2022/08/01 12:03:02;;;;;;;4.93;1.60;;;23.90;98.80;;;;;;5010089;28;20142;-62
2022/08/01 12:05:29;;;;;;;5.10;1.40;;;23.70;98.80;;;;;;5026623;28;20046;-63
2022/08/01 12:07:56;;;;;;;6.55;1.70;;;23.60;98.90;;;;;;5031376;28;20052;-64
2022/08/01 12:10:28;;;;;;;5.40;1.45;;;23.60;98.70;;;;;;5025737;28;20121;-63
2022/08/01 12:13:00;;;;;;;5.25;1.48;;;23.40;99.00;;;;;;5032186;28;20056;-62
2022/08/01 12:15:31;;;;;;;4.55;1.27;;;23.40;99.50;;;;;;5010739;28;20088;-64
2022/08/01 12:17:59;;;;;;;5.38;1.67;;;23.40;99.20;;;;;;5014964;28;20045;-64
2022/08/01 12:20:29;;;;;;;6.28;1.75;;;23.40;98.40;;;;;;5032213;28;20107;-62
2022/08/01 12:22:56;;;;;;;3.25;1.50;;;23.50;98.20;;;;;;5036153;28;20109;-62
2022/08/01 12:25:22;;;;;;;3.60;1.35;;;23.40;98.10;;;;;;5033797;28;20430;-63
2022/08/01 12:27:49;;;;;;;5.38;1.50;;;23.50;98.40;;;;;;5036363;28;20048;-63
2022/08/01 12:30:17;;;;;;;4.97;1.60;;;23.70;98.50;;;;;;5054412;28;20308;-63
2022/08/01 12:32:47;;;;;;;5.55;1.55;;;23.80;98.50;;;;;;5044787;28;20220;-62
2022/08/01 12:35:18;;;;;;;6.85;1.50;;;23.70;98.00;;;;;;5029812;28;20080;-62
2022/08/01 12:37:45;;;;;;;4.50;1.52;;;23.50;97.70;;;;;;5045269;28;20068;-62
2022/08/01 12:40:17;;;;;;;5.70;1.50;;;23.60;98.00;;;;;;5041172;28;20420;-63
2022/08/01 12:42:47;;;;;;;6.13;1.60;;;23.70;97.10;;;;;;5055475;28;20107;-62
2022/08/01 12:45:17;;;;;;;5.13;1.60;;;23.70;97.20;;;;;;5025840;28;20355;-62
2022/08/01 12:47:43;;;;;;;3.47;1.45;;;23.80;96.50;;;;;;5023569;28;20057;-62
2022/08/01 12:50:15;;;;;;;7.00;1.40;;;23.80;97.10;;;;;;5049557;28;20186;-63
2022/08/01 12:52:41;;;;;;;4.65;1.20;;;23.90;97.10;;;;;;5054026;28;20119;-62